sensor_id;sensor_type;location;lat;lon;timestamp;pressure;altitude;pressure_sealevel;temperature;humidity
43741;BME280;29352;48.708;9.290;2023-05-20T00:00:06;97946.97;;;4.65;79.85
43741;BME280;29352;48.708;9.290;2023-05-20T00:02:34;97938.50;;;4.70;80.06
43741;BME280;29352;48.708;9.290;2023-05-20T00:04:59;97941.84;;;4.64;79.78
43741;BME280;29352;48.708;9.290;2023-05-20T00:07:25;97940.50;;;4.68;79.68
43741;BME280;29352;48.708;9.290;2023-05-20T00:09:50;97941.38;;;4.60;79.52
43741;BME280;29352;48.708;9.290;2023-05-20T00:12:16;97931.84;;;4.51;80.16
43741;BME280;29352;48.708;9.290;2023-05-20T00:14:41;97937.22;;;4.66;80.22
43741;BME280;29352;48.708;9.290;2023-05-20T00:17:07;97934.94;;;4.63;80.01
43741;BME280;29352;48.708;9.290;2023-05-20T00:19:32;97926.41;;;4.76;79.52
43741;BME280;29352;48.708;9.290;2023-05-20T00:21:58;97930.78;;;4.83;79.35
43741;BME280;29352;48.708;9.290;2023-05-20T00:24:24;97929.50;;;4.79;79.49
43741;BME280;29352;48.708;9.290;2023-05-20T00:26:50;97930.34;;;4.80;79.37
43741;BME280;29352;48.708;9.290;2023-05-20T00:29:15;97931.03;;;5.11;78.84
43741;BME280;29352;48.708;9.290;2023-05-20T00:31:41;97920.25;;;4.98;78.63
43741;BME280;29352;48.708;9.290;2023-05-20T00:34:07;97927.34;;;4.97;78.72
43741;BME280;29352;48.708;9.290;2023-05-20T00:36:33;97923.09;;;4.73;79.19
43741;BME280;29352;48.708;9.290;2023-05-20T00:38:59;97923.34;;;5.02;78.94
43741;BME280;29352;48.708;9.290;2023-05-20T00:41:25;97917.78;;;4.96;78.90
43741;BME280;29352;48.708;9.290;2023-05-20T00:43:55;97921.38;;;4.81;78.84
43741;BME280;29352;48.708;9.290;2023-05-20T00:46:22;97928.03;;;4.77;79.20
43741;BME280;29352;48.708;9.290;2023-05-20T00:48:50;97924.94;;;4.73;79.77
43741;BME280;29352;48.708;9.290;2023-05-20T00:51:17;97927.69;;;4.80;79.71
43741;BME280;29352;48.708;9.290;2023-05-20T00:53:44;97916.66;;;4.53;80.87
43741;BME280;29352;48.708;9.290;2023-05-20T00:56:10;97921.59;;;4.56;80.89
43741;BME280;29352;48.708;9.290;2023-05-20T00:58:37;97913.31;;;4.59;80.71
43741;BME280;29352;48.708;9.290;2023-05-20T01:01:04;97914.88;;;4.45;81.18
43741;BME280;29352;48.708;9.290;2023-05-20T01:03:31;97922.81;;;4.68;80.25
43741;BME280;29352;48.708;9.290;2023-05-20T01:05:56;97917.97;;;4.72;80.51
43741;BME280;29352;48.708;9.290;2023-05-20T01:08:24;97917.03;;;4.88;79.35
43741;BME280;29352;48.708;9.290;2023-05-20T01:11:16;97911.59;;;5.04;79.05
43741;BME280;29352;48.708;9.290;2023-05-20T01:13:54;97911.13;;;5.01;78.72
43741;BME280;29352;48.708;9.290;2023-05-20T01:16:27;97906.00;;;4.99;78.70
43741;BME280;29352;48.708;9.290;2023-05-20T01:18:58;97905.75;;;5.09;78.04
43741;BME280;29352;48.708;9.290;2023-05-20T01:21:26;97911.38;;;4.91;79.48
43741;BME280;29352;48.708;9.290;2023-05-20T01:23:51;97898.97;;;4.77;80.15
43741;BME280;29352;48.708;9.290;2023-05-20T01:26:17;97905.66;;;4.64;80.82
43741;BME280;29352;48.708;9.290;2023-05-20T01:28:43;97900.50;;;4.48;81.23
43741;BME280;29352;48.708;9.290;2023-05-20T01:31:14;97903.78;;;4.50;81.57
43741;BME280;29352;48.708;9.290;2023-05-20T01:33:53;97897.53;;;4.20;82.29
43741;BME280;29352;48.708;9.290;2023-05-20T01:36:22;97896.81;;;4.34;81.52
43741;BME280;29352;48.708;9.290;2023-05-20T01:38:48;97895.56;;;4.22;81.74
43741;BME280;29352;48.708;9.290;2023-05-20T01:41:15;97899.25;;;4.36;81.55
43741;BME280;29352;48.708;9.290;2023-05-20T01:43:42;97900.97;;;4.28;82.08
43741;BME280;29352;48.708;9.290;2023-05-20T01:46:08;97902.19;;;4.18;82.71
43741;BME280;29352;48.708;9.290;2023-05-20T01:48:34;97899.81;;;4.00;83.54
43741;BME280;29352;48.708;9.290;2023-05-20T01:51:00;97894.81;;;4.05;83.14
43741;BME280;29352;48.708;9.290;2023-05-20T01:53:25;97906.56;;;4.02;83.71
43741;BME280;29352;48.708;9.290;2023-05-20T01:55:50;97888.97;;;4.18;83.30
43741;BME280;29352;48.708;9.290;2023-05-20T01:58:16;97890.25;;;3.99;83.38
43741;BME280;29352;48.708;9.290;2023-05-20T02:00:42;97892.00;;;3.84;84.00
43741;BME280;29352;48.708;9.290;2023-05-20T02:03:08;97890.91;;;4.01;83.84
43741;BME280;29352;48.708;9.290;2023-05-20T02:05:33;97889.91;;;4.02;83.99
43741;BME280;29352;48.708;9.290;2023-05-20T02:07:59;97893.41;;;3.94;83.51
43741;BME280;29352;48.708;9.290;2023-05-20T02:10:24;97883.31;;;3.98;83.40
43741;BME280;29352;48.708;9.290;2023-05-20T02:12:49;97885.56;;;3.86;83.98
43741;BME280;29352;48.708;9.290;2023-05-20T02:15:15;97885.22;;;3.81;84.42
43741;BME280;29352;48.708;9.290;2023-05-20T02:17:40;97887.00;;;3.89;84.08
43741;BME280;29352;48.708;9.290;2023-05-20T02:20:08;97880.69;;;3.98;83.43
43741;BME280;29352;48.708;9.290;2023-05-20T02:22:34;97880.69;;;3.98;83.67
43741;BME280;29352;48.708;9.290;2023-05-20T02:25:00;97883.44;;;3.42;86.06
43741;BME280;29352;48.708;9.290;2023-05-20T02:27:26;97886.50;;;3.54;86.20
43741;BME280;29352;48.708;9.290;2023-05-20T02:29:51;97884.88;;;3.53;86.63
43741;BME280;29352;48.708;9.290;2023-05-20T02:32:17;97890.09;;;3.69;86.03
43741;BME280;29352;48.708;9.290;2023-05-20T02:34:44;97895.75;;;3.50;87.00
43741;BME280;29352;48.708;9.290;2023-05-20T02:37:10;97887.91;;;3.42;86.89
43741;BME280;29352;48.708;9.290;2023-05-20T02:39:35;97890.16;;;3.53;87.10
43741;BME280;29352;48.708;9.290;2023-05-20T02:42:00;97887.47;;;3.61;85.52
43741;BME280;29352;48.708;9.290;2023-05-20T02:44:26;97883.31;;;3.67;85.75
43741;BME280;29352;48.708;9.290;2023-05-20T02:46:51;97881.84;;;3.64;85.87
43741;BME280;29352;48.708;9.290;2023-05-20T02:49:17;97892.88;;;3.68;86.02
43741;BME280;29352;48.708;9.290;2023-05-20T02:51:42;97894.91;;;3.57;86.13
43741;BME280;29352;48.708;9.290;2023-05-20T02:54:08;97894.69;;;3.67;84.97
43741;BME280;29352;48.708;9.290;2023-05-20T02:56:33;97896.94;;;3.87;84.48
43741;BME280;29352;48.708;9.290;2023-05-20T02:58:58;97897.94;;;3.77;85.02
43741;BME280;29352;48.708;9.290;2023-05-20T03:01:24;97900.03;;;3.90;84.83
43741;BME280;29352;48.708;9.290;2023-05-20T03:03:49;97899.09;;;3.83;85.49
43741;BME280;29352;48.708;9.290;2023-05-20T03:06:15;97898.22;;;3.60;86.49
43741;BME280;29352;48.708;9.290;2023-05-20T03:08:40;97888.94;;;3.64;85.90
43741;BME280;29352;48.708;9.290;2023-05-20T03:11:06;97886.84;;;3.59;86.47
43741;BME280;29352;48.708;9.290;2023-05-20T03:13:32;97890.09;;;3.69;85.68
43741;BME280;29352;48.708;9.290;2023-05-20T03:15:59;97894.06;;;3.65;86.22
43741;BME280;29352;48.708;9.290;2023-05-20T03:18:25;97890.28;;;3.60;86.00
43741;BME280;29352;48.708;9.290;2023-05-20T03:20:51;97883.75;;;3.47;86.90
43741;BME280;29352;48.708;9.290;2023-05-20T03:23:16;97891.53;;;3.41;87.06
43741;BME280;29352;48.708;9.290;2023-05-20T03:25:42;97883.09;;;3.45;87.36
43741;BME280;29352;48.708;9.290;2023-05-20T03:28:07;97890.69;;;3.40;86.95
43741;BME280;29352;48.708;9.290;2023-05-20T03:30:32;97882.56;;;3.58;86.78
43741;BME280;29352;48.708;9.290;2023-05-20T03:32:58;97885.78;;;3.37;86.98
43741;BME280;29352;48.708;9.290;2023-05-20T03:35:24;97892.84;;;3.45;86.91
43741;BME280;29352;48.708;9.290;2023-05-20T03:37:50;97900.97;;;3.66;86.94
43741;BME280;29352;48.708;9.290;2023-05-20T03:40:17;97904.16;;;3.62;86.14
43741;BME280;29352;48.708;9.290;2023-05-20T03:42:45;97897.19;;;3.61;86.48
43741;BME280;29352;48.708;9.290;2023-05-20T03:45:11;97898.75;;;3.86;85.41
43741;BME280;29352;48.708;9.290;2023-05-20T03:47:36;97899.69;;;3.93;85.79
43741;BME280;29352;48.708;9.290;2023-05-20T03:50:02;97902.50;;;3.92;85.26
43741;BME280;29352;48.708;9.290;2023-05-20T03:52:28;97892.19;;;4.05;84.92
43741;BME280;29352;48.708;9.290;2023-05-20T03:54:53;97903.16;;;3.94;86.14
43741;BME280;29352;48.708;9.290;2023-05-20T03:57:19;97885.53;;;4.17;85.28
43741;BME280;29352;48.708;9.290;2023-05-20T03:59:44;97892.97;;;4.14;84.93
43741;BME280;29352;48.708;9.290;2023-05-20T04:02:10;97889.44;;;4.21;84.81
43741;BME280;29352;48.708;9.290;2023-05-20T04:04:36;97901.78;;;4.29;83.87
43741;BME280;29352;48.708;9.290;2023-05-20T04:07:02;97892.53;;;4.56;83.91
43741;BME280;29352;48.708;9.290;2023-05-20T04:09:29;97894.38;;;4.47;83.40
43741;BME280;29352;48.708;9.290;2023-05-20T04:11:54;97892.06;;;4.53;84.04
43741;BME280;29352;48.708;9.290;2023-05-20T04:14:20;97891.63;;;4.64;84.32
43741;BME280;29352;48.708;9.290;2023-05-20T04:16:45;97892.34;;;4.35;84.61
43741;BME280;29352;48.708;9.290;2023-05-20T04:19:11;97885.59;;;4.55;84.03
43741;BME280;29352;48.708;9.290;2023-05-20T04:21:37;97885.63;;;4.70;83.63
43741;BME280;29352;48.708;9.290;2023-05-20T04:24:03;97887.78;;;4.43;84.71
43741;BME280;29352;48.708;9.290;2023-05-20T04:26:29;97885.81;;;4.45;84.49
43741;BME280;29352;48.708;9.290;2023-05-20T04:28:55;97874.81;;;4.80;83.86
43741;BME280;29352;48.708;9.290;2023-05-20T04:31:23;97876.72;;;4.48;84.60
43741;BME280;29352;48.708;9.290;2023-05-20T04:33:53;97873.66;;;4.59;84.46
43741;BME280;29352;48.708;9.290;2023-05-20T04:36:19;97872.53;;;4.77;83.98
43741;BME280;29352;48.708;9.290;2023-05-20T04:38:44;97875.88;;;4.85;83.60
43741;BME280;29352;48.708;9.290;2023-05-20T04:41:11;97872.25;;;4.86;83.76
43741;BME280;29352;48.708;9.290;2023-05-20T04:43:36;97879.28;;;4.94;83.53
43741;BME280;29352;48.708;9.290;2023-05-20T04:46:04;97880.66;;;5.05;82.93
43741;BME280;29352;48.708;9.290;2023-05-20T04:48:33;97874.00;;;4.94;83.19
43741;BME280;29352;48.708;9.290;2023-05-20T04:50:58;97878.03;;;5.19;82.99
43741;BME280;29352;48.708;9.290;2023-05-20T04:53:24;97888.22;;;5.37;82.45
43741;BME280;29352;48.708;9.290;2023-05-20T04:55:53;97882.50;;;5.49;81.58
43741;BME280;29352;48.708;9.290;2023-05-20T04:58:20;97884.59;;;5.53;81.11
43741;BME280;29352;48.708;9.290;2023-05-20T05:00:50;97877.38;;;5.47;81.75
43741;BME280;29352;48.708;9.290;2023-05-20T05:03:16;97873.63;;;5.71;80.45
43741;BME280;29352;48.708;9.290;2023-05-20T05:05:42;97874.72;;;5.77;80.10
43741;BME280;29352;48.708;9.290;2023-05-20T05:08:09;97876.22;;;6.01;79.96
43741;BME280;29352;48.708;9.290;2023-05-20T05:10:38;97866.50;;;6.08;79.56
43741;BME280;29352;48.708;9.290;2023-05-20T05:13:04;97874.69;;;6.13;79.44
43741;BME280;29352;48.708;9.290;2023-05-20T05:15:29;97871.50;;;6.39;79.16
43741;BME280;29352;48.708;9.290;2023-05-20T05:17:55;97877.34;;;6.34;79.02
43741;BME280;29352;48.708;9.290;2023-05-20T05:20:21;97870.59;;;6.53;78.86
43741;BME280;29352;48.708;9.290;2023-05-20T05:22:47;97857.56;;;6.58;77.95
43741;BME280;29352;48.708;9.290;2023-05-20T05:25:15;97858.88;;;6.91;76.72
43741;BME280;29352;48.708;9.290;2023-05-20T05:27:41;97853.19;;;7.28;75.35
43741;BME280;29352;48.708;9.290;2023-05-20T05:30:07;97857.84;;;7.68;74.67
43741;BME280;29352;48.708;9.290;2023-05-20T05:32:34;97862.88;;;7.97;73.37
43741;BME280;29352;48.708;9.290;2023-05-20T05:35:00;97853.25;;;7.96;73.24
43741;BME280;29352;48.708;9.290;2023-05-20T05:37:25;97853.38;;;7.75;73.96
43741;BME280;29352;48.708;9.290;2023-05-20T05:39:51;97844.69;;;7.94;72.98
43741;BME280;29352;48.708;9.290;2023-05-20T05:42:16;97847.00;;;7.69;73.71
43741;BME280;29352;48.708;9.290;2023-05-20T05:44:42;97844.53;;;7.61;74.35
43741;BME280;29352;48.708;9.290;2023-05-20T05:47:08;97837.53;;;7.95;73.33
43741;BME280;29352;48.708;9.290;2023-05-20T05:49:33;97835.31;;;8.18;72.72
43741;BME280;29352;48.708;9.290;2023-05-20T05:51:59;97844.41;;;7.76;74.34
43741;BME280;29352;48.708;9.290;2023-05-20T05:54:25;97836.53;;;8.02;73.31
43741;BME280;29352;48.708;9.290;2023-05-20T05:56:51;97834.59;;;7.76;73.58
43741;BME280;29352;48.708;9.290;2023-05-20T05:59:18;97834.50;;;8.31;72.68
43741;BME280;29352;48.708;9.290;2023-05-20T06:01:44;97829.41;;;8.49;72.35
43741;BME280;29352;48.708;9.290;2023-05-20T06:04:10;97837.59;;;8.54;72.55
43741;BME280;29352;48.708;9.290;2023-05-20T06:06:35;97851.91;;;8.47;71.68
43741;BME280;29352;48.708;9.290;2023-05-20T06:09:01;97842.53;;;8.77;71.96
43741;BME280;29352;48.708;9.290;2023-05-20T06:11:27;97838.38;;;9.08;71.38
43741;BME280;29352;48.708;9.290;2023-05-20T06:13:52;97837.00;;;8.72;70.86
43741;BME280;29352;48.708;9.290;2023-05-20T06:16:17;97827.56;;;8.50;71.53
43741;BME280;29352;48.708;9.290;2023-05-20T06:18:45;97836.34;;;8.97;71.65
43741;BME280;29352;48.708;9.290;2023-05-20T06:21:10;97826.00;;;9.40;70.42
43741;BME280;29352;48.708;9.290;2023-05-20T06:23:36;97827.97;;;9.58;69.50
43741;BME280;29352;48.708;9.290;2023-05-20T06:26:02;97824.06;;;10.37;67.42
43741;BME280;29352;48.708;9.290;2023-05-20T06:28:28;97828.56;;;10.05;67.71
43741;BME280;29352;48.708;9.290;2023-05-20T06:30:56;97825.84;;;10.12;67.84
43741;BME280;29352;48.708;9.290;2023-05-20T06:33:23;97820.91;;;10.47;66.95
43741;BME280;29352;48.708;9.290;2023-05-20T06:35:51;97820.56;;;10.05;68.19
43741;BME280;29352;48.708;9.290;2023-05-20T06:38:17;97811.69;;;10.43;67.14
43741;BME280;29352;48.708;9.290;2023-05-20T06:40:43;97805.09;;;10.96;65.26
43741;BME280;29352;48.708;9.290;2023-05-20T06:43:08;97808.50;;;11.03;66.41
43741;BME280;29352;48.708;9.290;2023-05-20T06:45:34;97808.38;;;11.34;64.44
43741;BME280;29352;48.708;9.290;2023-05-20T06:47:59;97810.81;;;11.18;65.43
43741;BME280;29352;48.708;9.290;2023-05-20T06:50:24;97802.06;;;11.77;63.83
43741;BME280;29352;48.708;9.290;2023-05-20T06:52:52;97798.78;;;11.94;64.67
43741;BME280;29352;48.708;9.290;2023-05-20T06:55:18;97797.78;;;12.06;63.76
43741;BME280;29352;48.708;9.290;2023-05-20T06:57:43;97789.38;;;12.68;61.69
43741;BME280;29352;48.708;9.290;2023-05-20T07:00:09;97786.03;;;13.48;58.59
43741;BME280;29352;48.708;9.290;2023-05-20T07:02:36;97787.28;;;13.17;60.34
43741;BME280;29352;48.708;9.290;2023-05-20T07:05:01;97781.31;;;12.92;60.17
43741;BME280;29352;48.708;9.290;2023-05-20T07:07:27;97788.06;;;13.30;59.89
43741;BME280;29352;48.708;9.290;2023-05-20T07:09:54;97782.81;;;13.35;60.09
43741;BME280;29352;48.708;9.290;2023-05-20T07:12:19;97784.84;;;12.45;60.28
43741;BME280;29352;48.708;9.290;2023-05-20T07:14:44;97786.47;;;12.35;60.89
43741;BME280;29352;48.708;9.290;2023-05-20T07:17:10;97784.97;;;12.97;59.99
43741;BME280;29352;48.708;9.290;2023-05-20T07:19:35;97775.81;;;13.74;58.08
43741;BME280;29352;48.708;9.290;2023-05-20T07:22:01;97763.44;;;15.08;56.02
43741;BME280;29352;48.708;9.290;2023-05-20T07:24:26;97769.88;;;14.68;56.40
43741;BME280;29352;48.708;9.290;2023-05-20T07:26:52;97781.56;;;12.90;58.32
43741;BME280;29352;48.708;9.290;2023-05-20T07:29:17;97775.84;;;13.10;58.75
43741;BME280;29352;48.708;9.290;2023-05-20T07:31:42;97765.28;;;12.45;59.62
43741;BME280;29352;48.708;9.290;2023-05-20T07:34:09;97777.13;;;11.83;61.71
43741;BME280;29352;48.708;9.290;2023-05-20T07:36:35;97778.00;;;11.77;62.17
43741;BME280;29352;48.708;9.290;2023-05-20T07:39:02;97779.84;;;11.47;63.06
43741;BME280;29352;48.708;9.290;2023-05-20T07:41:28;97771.53;;;11.85;62.33
43741;BME280;29352;48.708;9.290;2023-05-20T07:43:53;97768.00;;;11.24;62.85
43741;BME280;29352;48.708;9.290;2023-05-20T07:46:18;97768.88;;;11.36;62.50
43741;BME280;29352;48.708;9.290;2023-05-20T07:48:44;97777.28;;;11.70;62.63
43741;BME280;29352;48.708;9.290;2023-05-20T07:51:10;97761.75;;;11.49;62.17
43741;BME280;29352;48.708;9.290;2023-05-20T07:53:36;97757.16;;;11.68;62.62
43741;BME280;29352;48.708;9.290;2023-05-20T07:56:02;97756.94;;;11.21;62.78
43741;BME280;29352;48.708;9.290;2023-05-20T07:58:28;97754.94;;;11.16;63.31
43741;BME280;29352;48.708;9.290;2023-05-20T08:00:56;97760.88;;;11.97;62.03
43741;BME280;29352;48.708;9.290;2023-05-20T08:03:21;97763.84;;;12.19;61.38
43741;BME280;29352;48.708;9.290;2023-05-20T08:05:47;97759.41;;;11.41;62.69
43741;BME280;29352;48.708;9.290;2023-05-20T08:08:13;97754.25;;;10.84;64.01
43741;BME280;29352;48.708;9.290;2023-05-20T08:10:39;97756.25;;;10.70;64.75
43741;BME280;29352;48.708;9.290;2023-05-20T08:13:05;97764.00;;;10.78;63.88
43741;BME280;29352;48.708;9.290;2023-05-20T08:15:31;97767.53;;;11.09;63.86
43741;BME280;29352;48.708;9.290;2023-05-20T08:17:56;97777.28;;;11.03;62.94
43741;BME280;29352;48.708;9.290;2023-05-20T08:20:21;97782.81;;;10.83;63.87
43741;BME280;29352;48.708;9.290;2023-05-20T08:22:47;97774.03;;;11.38;63.40
43741;BME280;29352;48.708;9.290;2023-05-20T08:25:13;97776.69;;;11.68;62.92
43741;BME280;29352;48.708;9.290;2023-05-20T08:27:40;97769.19;;;11.10;64.05
43741;BME280;29352;48.708;9.290;2023-05-20T08:30:06;97770.78;;;11.29;63.48
43741;BME280;29352;48.708;9.290;2023-05-20T08:32:34;97768.50;;;11.51;62.87
43741;BME280;29352;48.708;9.290;2023-05-20T08:35:01;97784.19;;;11.48;62.22
43741;BME280;29352;48.708;9.290;2023-05-20T08:37:28;97778.56;;;12.09;61.61
43741;BME280;29352;48.708;9.290;2023-05-20T08:39:54;97764.59;;;12.73;60.70
43741;BME280;29352;48.708;9.290;2023-05-20T08:42:23;97773.38;;;13.32;58.11
43741;BME280;29352;48.708;9.290;2023-05-20T08:44:51;97765.78;;;12.00;60.68
43741;BME280;29352;48.708;9.290;2023-05-20T08:47:21;97756.66;;;12.54;60.84
43741;BME280;29352;48.708;9.290;2023-05-20T08:49:48;97758.75;;;12.88;60.51
43741;BME280;29352;48.708;9.290;2023-05-20T08:52:15;97745.31;;;14.26;58.87
43741;BME280;29352;48.708;9.290;2023-05-20T08:54:45;97755.28;;;14.81;56.67
43741;BME280;29352;48.708;9.290;2023-05-20T08:57:14;97744.81;;;15.01;56.32
43741;BME280;29352;48.708;9.290;2023-05-20T08:59:44;97749.50;;;13.88;55.96
43741;BME280;29352;48.708;9.290;2023-05-20T09:02:14;97735.72;;;14.30;56.04
43741;BME280;29352;48.708;9.290;2023-05-20T09:04:39;97733.94;;;15.35;55.16
43741;BME280;29352;48.708;9.290;2023-05-20T09:07:05;97742.06;;;15.89;53.56
43741;BME280;29352;48.708;9.290;2023-05-20T09:09:33;97753.25;;;15.10;54.32
43741;BME280;29352;48.708;9.290;2023-05-20T09:12:00;97739.13;;;14.98;54.73
43741;BME280;29352;48.708;9.290;2023-05-20T09:14:28;97734.22;;;15.11;56.32
43741;BME280;29352;48.708;9.290;2023-05-20T09:16:57;97736.63;;;14.35;56.43
43741;BME280;29352;48.708;9.290;2023-05-20T09:19:23;97736.00;;;14.84;56.35
43741;BME280;29352;48.708;9.290;2023-05-20T09:21:51;97732.72;;;14.43;55.98
43741;BME280;29352;48.708;9.290;2023-05-20T09:24:25;97732.91;;;15.14;55.09
43741;BME280;29352;48.708;9.290;2023-05-20T09:26:51;97730.94;;;15.31;54.93
43741;BME280;29352;48.708;9.290;2023-05-20T09:29:17;97726.97;;;16.52;52.72
43741;BME280;29352;48.708;9.290;2023-05-20T09:31:46;97726.00;;;15.01;54.75
43741;BME280;29352;48.708;9.290;2023-05-20T09:34:12;97729.50;;;15.73;53.24
43741;BME280;29352;48.708;9.290;2023-05-20T09:36:39;97735.06;;;15.88;53.51
43741;BME280;29352;48.708;9.290;2023-05-20T09:39:11;97720.13;;;16.02;54.27
43741;BME280;29352;48.708;9.290;2023-05-20T09:41:57;97722.81;;;16.77;53.47
43741;BME280;29352;48.708;9.290;2023-05-20T09:44:30;97719.88;;;17.46;51.08
43741;BME280;29352;48.708;9.290;2023-05-20T09:46:58;97710.53;;;18.36;49.93
43741;BME280;29352;48.708;9.290;2023-05-20T09:49:27;97718.16;;;17.15;50.63
43741;BME280;29352;48.708;9.290;2023-05-20T09:51:57;97701.47;;;15.64;53.48
43741;BME280;29352;48.708;9.290;2023-05-20T09:54:26;97709.09;;;14.62;56.89
43741;BME280;29352;48.708;9.290;2023-05-20T09:56:53;97698.91;;;16.43;53.94
43741;BME280;29352;48.708;9.290;2023-05-20T09:59:21;97694.53;;;17.53;51.92
43741;BME280;29352;48.708;9.290;2023-05-20T10:01:48;97705.88;;;17.60;50.45
43741;BME280;29352;48.708;9.290;2023-05-20T10:04:16;97705.47;;;16.58;50.91
43741;BME280;29352;48.708;9.290;2023-05-20T10:20:26;97686.34;;;16.22;52.43
43741;BME280;29352;48.708;9.290;2023-05-20T10:22:56;97679.47;;;16.41;52.79
43741;BME280;29352;48.708;9.290;2023-05-20T10:25:24;97684.75;;;17.16;51.61
43741;BME280;29352;48.708;9.290;2023-05-20T10:28:09;97674.09;;;18.08;51.50
43741;BME280;29352;48.708;9.290;2023-05-20T10:30:36;97670.59;;;17.92;51.79
43741;BME280;29352;48.708;9.290;2023-05-20T10:33:05;97677.84;;;17.50;51.23
43741;BME280;29352;48.708;9.290;2023-05-20T10:35:31;97674.97;;;16.99;52.75
43741;BME280;29352;48.708;9.290;2023-05-20T10:38:09;97669.78;;;17.96;50.66
43741;BME280;29352;48.708;9.290;2023-05-20T10:40:36;97667.06;;;18.02;49.79
43741;BME280;29352;48.708;9.290;2023-05-20T10:43:12;97661.94;;;17.85;50.08
43741;BME280;29352;48.708;9.290;2023-05-20T10:48:22;97647.97;;;18.88;47.72
43741;BME280;29352;48.708;9.290;2023-05-20T10:50:49;97661.91;;;17.59;49.45
43741;BME280;29352;48.708;9.290;2023-05-20T10:53:14;97653.81;;;17.49;50.18
43741;BME280;29352;48.708;9.290;2023-05-20T10:55:47;97655.41;;;17.30;50.62
43741;BME280;29352;48.708;9.290;2023-05-20T10:58:17;97634.97;;;17.90;51.55
43741;BME280;29352;48.708;9.290;2023-05-20T11:00:44;97635.19;;;18.44;50.67
43741;BME280;29352;48.708;9.290;2023-05-20T11:03:10;97634.34;;;19.64;49.57
43741;BME280;29352;48.708;9.290;2023-05-20T11:05:39;97635.03;;;19.79;48.64
43741;BME280;29352;48.708;9.290;2023-05-20T11:08:08;97632.69;;;19.23;48.19
43741;BME280;29352;48.708;9.290;2023-05-20T11:10:35;97623.44;;;18.80;49.63
43741;BME280;29352;48.708;9.290;2023-05-20T11:13:02;97616.81;;;19.51;47.66
43741;BME280;29352;48.708;9.290;2023-05-20T11:15:30;97607.72;;;19.36;49.05
43741;BME280;29352;48.708;9.290;2023-05-20T11:18:00;97605.97;;;20.48;47.48
43741;BME280;29352;48.708;9.290;2023-05-20T11:20:28;97600.34;;;20.40;46.24
43741;BME280;29352;48.708;9.290;2023-05-20T11:22:55;97602.38;;;20.00;49.88
43741;BME280;29352;48.708;9.290;2023-05-20T11:25:21;97600.59;;;19.85;47.34
43741;BME280;29352;48.708;9.290;2023-05-20T11:27:49;97608.81;;;19.35;48.21
43741;BME280;29352;48.708;9.290;2023-05-20T11:30:15;97600.22;;;19.23;47.13
43741;BME280;29352;48.708;9.290;2023-05-20T11:33:03;97608.53;;;18.87;47.83
43741;BME280;29352;48.708;9.290;2023-05-20T11:35:32;97596.25;;;20.18;47.67
43741;BME280;29352;48.708;9.290;2023-05-20T11:38:02;97594.91;;;20.64;46.14
43741;BME280;29352;48.708;9.290;2023-05-20T11:40:31;97588.84;;;20.24;46.17
43741;BME280;29352;48.708;9.290;2023-05-20T11:42:59;97588.19;;;19.79;48.02
43741;BME280;29352;48.708;9.290;2023-05-20T11:45:26;97579.50;;;19.48;48.11
43741;BME280;29352;48.708;9.290;2023-05-20T11:48:03;97595.47;;;18.45;48.00
43741;BME280;29352;48.708;9.290;2023-05-20T11:50:37;97595.22;;;18.31;48.71
43741;BME280;29352;48.708;9.290;2023-05-20T11:53:14;97585.66;;;18.64;49.39
43741;BME280;29352;48.708;9.290;2023-05-20T11:58:26;97578.28;;;18.80;47.72
43741;BME280;29352;48.708;9.290;2023-05-20T12:00:54;97577.66;;;18.29;48.51
43741;BME280;29352;48.708;9.290;2023-05-20T12:03:20;97573.94;;;18.09;49.60
43741;BME280;29352;48.708;9.290;2023-05-20T12:05:46;97576.88;;;18.18;48.37
43741;BME280;29352;48.708;9.290;2023-05-20T12:08:12;97574.19;;;18.18;50.10
43741;BME280;29352;48.708;9.290;2023-05-20T12:10:39;97570.66;;;18.28;48.79
43741;BME280;29352;48.708;9.290;2023-05-20T12:13:04;97568.81;;;18.03;49.20
43741;BME280;29352;48.708;9.290;2023-05-20T12:15:36;97574.69;;;18.40;49.09
43741;BME280;29352;48.708;9.290;2023-05-20T12:18:02;97567.72;;;18.89;48.39
43741;BME280;29352;48.708;9.290;2023-05-20T12:20:29;97558.78;;;18.18;48.99
43741;BME280;29352;48.708;9.290;2023-05-20T12:22:56;97556.66;;;18.10;48.30
43741;BME280;29352;48.708;9.290;2023-05-20T12:25:22;97557.97;;;18.23;49.52
43741;BME280;29352;48.708;9.290;2023-05-20T12:27:48;97545.22;;;19.04;49.26
43741;BME280;29352;48.708;9.290;2023-05-20T12:30:18;97547.56;;;18.66;48.30
43741;BME280;29352;48.708;9.290;2023-05-20T12:32:46;97558.13;;;18.57;48.37
43741;BME280;29352;48.708;9.290;2023-05-20T12:35:13;97549.31;;;18.21;49.34
43741;BME280;29352;48.708;9.290;2023-05-20T12:37:40;97561.53;;;17.88;49.47
43741;BME280;29352;48.708;9.290;2023-05-20T12:40:08;97552.34;;;17.73;50.10
43741;BME280;29352;48.708;9.290;2023-05-20T12:42:36;97551.84;;;17.71;49.83
43741;BME280;29352;48.708;9.290;2023-05-20T12:45:06;97560.97;;;18.01;49.43
43741;BME280;29352;48.708;9.290;2023-05-20T12:47:34;97555.28;;;18.18;49.15
43741;BME280;29352;48.708;9.290;2023-05-20T12:50:01;97545.25;;;18.29;49.35
43741;BME280;29352;48.708;9.290;2023-05-20T12:52:27;97540.16;;;18.12;49.49
43741;BME280;29352;48.708;9.290;2023-05-20T12:54:54;97531.19;;;18.42;49.92
43741;BME280;29352;48.708;9.290;2023-05-20T12:57:21;97535.88;;;18.01;49.06
43741;BME280;29352;48.708;9.290;2023-05-20T12:59:48;97540.28;;;19.11;47.86
43741;BME280;29352;48.708;9.290;2023-05-20T13:02:14;97536.69;;;18.71;49.00
43741;BME280;29352;48.708;9.290;2023-05-20T13:04:40;97542.47;;;19.77;48.00
43741;BME280;29352;48.708;9.290;2023-05-20T13:07:06;97539.97;;;19.52;47.23
43741;BME280;29352;48.708;9.290;2023-05-20T13:09:31;97527.22;;;19.87;46.75
43741;BME280;29352;48.708;9.290;2023-05-20T13:11:59;97523.69;;;19.57;47.49
43741;BME280;29352;48.708;9.290;2023-05-20T13:14:25;97527.09;;;18.55;47.76
43741;BME280;29352;48.708;9.290;2023-05-20T13:16:50;97523.28;;;18.56;47.98
43741;BME280;29352;48.708;9.290;2023-05-20T13:19:23;97521.91;;;17.78;48.92
43741;BME280;29352;48.708;9.290;2023-05-20T13:21:50;97517.50;;;18.08;49.33